Afton, Michigan
Current Conditions -  °F | °C
As of 9:36 PM on Tuesday 21 Oct 2014 (Local Time) from KSLH Reporting Station
Clear Clear  
Wind Chill: 32°   Ceiling: Unl
Heat Index: 32°   Visibility: 10mi
Dew Point: 30°   Wind: 0mph
Humidity: 94%   Direction: NA
Pressure: 30.3"   Gusts: NA
Location:  45.36°N, 84.47°W
Report Text: KSLH 220136Z AUTO 00000KT 10SM CLR 00/M01 A3030 RMK AO2 T00001009
Loading
Personal Weather Stations






























Interactive Weather Map New forecast layout! Learn more

10-Day Weather Forecast

Advertisements
Track Severe Weather on mobile